createdAt,value
2022-11-23T00:01:36.307Z,134.90
2022-11-23T00:05:09.375Z,152.60
2022-11-23T00:08:47.489Z,127.50
2022-11-23T00:12:24.480Z,139.40
2022-11-23T00:16:07.197Z,135.90
2022-11-23T00:19:40.092Z,147.30
2022-11-23T00:23:17.795Z,130.00
2022-11-23T00:26:55.296Z,146.80
2022-11-23T00:30:32.997Z,130.10
2022-11-23T00:34:10.803Z,107.10
2022-11-23T00:37:48.406Z,140.40
2022-11-23T00:41:27.432Z,125.40
2022-11-23T00:45:04.326Z,139.50
2022-11-23T00:48:43.127Z,143.20
2022-11-23T00:52:19.119Z,149.10
2022-11-23T00:55:58.005Z,137.60
2022-11-23T00:59:34.804Z,125.40
2022-11-23T01:03:12.437Z,146.10
2022-11-23T01:06:50.040Z,165.20
2022-11-23T01:10:27.743Z,164.90
2022-11-23T01:14:05.856Z,133.20
2022-11-23T01:17:43.253Z,148.10
2022-11-23T01:21:20.737Z,136.60
2022-11-23T01:24:58.602Z,145.70
2022-11-23T01:28:38.108Z,151.30
2022-11-23T01:32:13.942Z,156.60
2022-11-23T01:35:51.570Z,161.60
2022-11-23T01:39:29.662Z,122.90
2022-11-23T01:43:26.229Z,145.50
2022-11-23T01:46:44.788Z,158.20
2022-11-23T01:50:22.387Z,138.70
2022-11-23T01:54:04.904Z,152.70
2022-11-23T01:57:46.310Z,137.50
2022-11-23T02:01:16.415Z,139.80
2022-11-23T02:04:54.548Z,157.40
2022-11-23T02:08:31.731Z,139.60
2022-11-23T02:12:13.017Z,153.50
2022-11-23T02:15:46.522Z,116.40
2022-11-23T02:19:34.909Z,158.40
2022-11-23T02:23:04.597Z,130.30
2022-11-23T02:26:39.632Z,122.10
2022-11-23T02:30:18.265Z,141.80
2022-11-23T02:33:54.735Z,127.60
2022-11-23T02:37:32.949Z,131.00
2022-11-23T02:41:10.141Z,142.10
2022-11-23T02:45:02.899Z,139.90
2022-11-23T02:48:26.169Z,150.20
2022-11-23T02:52:04.176Z,122.30
2022-11-23T02:55:40.754Z,139.90
2022-11-23T02:59:19.277Z,185.60
2022-11-23T03:02:56.369Z,186.20
2022-11-23T03:06:34.277Z,165.50
2022-11-23T03:10:11.878Z,128.40
2022-11-23T03:13:49.482Z,134.30
2022-11-23T03:17:28.318Z,119.40
2022-11-23T03:21:08.884Z,137.70
2022-11-23T03:24:42.491Z,133.30
2022-11-23T03:28:20.296Z,120.10
2022-11-23T03:31:57.899Z,137.40
2022-11-23T03:35:35.811Z,126.40
2022-11-23T03:39:13.614Z,134.00
2022-11-23T03:42:51.010Z,219.30
2022-11-23T03:46:28.512Z,149.50
2022-11-23T03:50:07.340Z,122.40
2022-11-23T03:53:44.124Z,130.60
2022-11-23T03:57:21.780Z,147.80
2022-11-23T04:00:59.971Z,118.40
2022-11-23T04:04:37.236Z,118.20
2022-11-23T04:08:14.836Z,134.50
2022-11-23T04:12:11.690Z,133.70
2022-11-23T04:15:30.245Z,161.90
2022-11-23T04:19:08.258Z,162.80
2022-11-23T04:22:45.552Z,180.20
2022-11-23T04:26:23.567Z,123.70
2022-11-23T04:30:01.165Z,132.80
2022-11-23T04:33:38.868Z,146.30
2022-11-23T04:37:16.369Z,135.70
2022-11-23T04:40:54.278Z,138.20
2022-11-23T04:44:31.980Z,134.80
2022-11-23T04:48:09.788Z,145.50
2022-11-23T04:51:47.185Z,135.70
2022-11-23T04:55:25.095Z,153.50
2022-11-23T04:59:02.900Z,134.70
2022-11-23T05:02:40.501Z,132.10
2022-11-23T05:06:18.205Z,131.40
2022-11-23T05:09:56.936Z,132.70
2022-11-23T05:13:34.046Z,122.00
2022-11-23T05:17:12.381Z,132.50
2022-11-23T05:20:49.022Z,125.90
2022-11-23T05:24:26.520Z,137.60
2022-11-23T05:28:30.160Z,127.90
2022-11-23T05:31:42.033Z,137.70
2022-11-23T05:35:29.998Z,124.10
2022-11-23T05:38:58.361Z,136.90
2022-11-23T05:42:35.552Z,152.00
2022-11-23T05:46:12.847Z,127.80
2022-11-23T05:49:51.166Z,140.50
2022-11-23T05:53:28.359Z,128.00
2022-11-23T05:57:05.778Z,137.20
2022-11-23T06:00:43.670Z,131.90
2022-11-23T06:04:21.161Z,137.60
2022-11-23T06:07:59.073Z,122.80
2022-11-23T06:11:37.290Z,130.20
2022-11-23T06:15:14.380Z,101.80
2022-11-23T06:18:52.288Z,126.60
2022-11-23T06:22:29.761Z,125.60
2022-11-23T06:26:07.388Z,133.90
2022-11-23T06:29:46.970Z,135.60
2022-11-23T06:33:23.001Z,143.80
2022-11-23T06:37:00.604Z,132.50
2022-11-23T06:40:38.103Z,110.30
2022-11-23T06:44:16.012Z,107.10
2022-11-23T06:47:56.895Z,132.30
2022-11-23T06:51:31.421Z,138.80
2022-11-23T06:55:09.533Z,114.60
2022-11-23T06:58:46.829Z,141.60
2022-11-23T07:02:24.331Z,164.00
2022-11-23T07:06:08.792Z,142.80
2022-11-23T07:09:41.056Z,172.00
2022-11-23T07:13:17.751Z,135.90
2022-11-23T07:16:55.581Z,148.00
2022-11-23T07:20:34.271Z,120.90
2022-11-23T07:24:10.860Z,155.10
2022-11-23T07:27:48.702Z,130.80
2022-11-23T07:31:26.403Z,107.60
2022-11-23T07:35:04.705Z,149.00
2022-11-23T07:38:41.911Z,141.20
2022-11-23T07:42:42.863Z,139.70
2022-11-23T07:45:57.619Z,150.80
2022-11-23T07:49:34.618Z,127.20
2022-11-23T07:53:12.187Z,117.30
2022-11-23T07:56:49.858Z,149.50
2022-11-23T08:00:29.144Z,144.20
2022-11-23T08:04:05.504Z,126.40
2022-11-23T08:07:43.241Z,126.10
2022-11-23T08:11:22.448Z,88.10
2022-11-23T08:14:58.308Z,145.80
2022-11-23T08:18:36.626Z,111.00
2022-11-23T08:22:15.919Z,132.50
2022-11-23T08:26:13.586Z,128.40
2022-11-23T08:29:30.353Z,154.40
2022-11-23T08:33:08.270Z,139.20
2022-11-23T08:36:45.353Z,133.20
2022-11-23T08:40:25.414Z,137.50
2022-11-23T08:43:59.841Z,157.60
2022-11-23T08:47:37.750Z,120.90
2022-11-23T08:51:15.248Z,136.20
2022-11-23T08:54:53.156Z,166.50
2022-11-23T08:58:31.474Z,126.60
2022-11-23T09:02:12.450Z,143.50
2022-11-23T09:05:46.370Z,136.30
2022-11-23T09:09:23.870Z,140.40
2022-11-23T09:13:01.501Z,136.90
2022-11-23T09:16:39.278Z,105.20
2022-11-23T09:20:16.908Z,140.20
2022-11-23T09:23:54.893Z,141.10
2022-11-23T09:27:32.187Z,130.10
2022-11-23T09:31:10.096Z,138.60
2022-11-23T09:34:48.012Z,126.90
2022-11-23T09:38:51.525Z,136.90
2022-11-23T09:42:32.598Z,142.20
2022-11-23T09:45:55.117Z,141.50
2022-11-23T09:49:22.701Z,108.90
2022-11-23T09:53:13.530Z,152.60
2022-11-23T09:56:38.969Z,138.40
2022-11-23T10:00:22.379Z,134.20
2022-11-23T10:03:51.585Z,133.10
2022-11-23T10:07:34.850Z,149.00
2022-11-23T10:11:12.624Z,158.10
2022-11-23T10:14:57.804Z,150.00
2022-11-23T10:18:37.272Z,128.00
2022-11-23T10:22:10.446Z,147.80
2022-11-23T10:25:52.666Z,156.00
2022-11-23T10:29:36.304Z,141.70
2022-11-23T10:32:52.807Z,142.80
2022-11-23T10:36:30.615Z,155.50
2022-11-23T10:40:29.617Z,145.80
2022-11-23T10:43:48.786Z,152.90
2022-11-23T10:47:50.424Z,160.80
2022-11-23T10:51:19.556Z,133.50
2022-11-23T10:54:49.580Z,129.80
2022-11-23T10:58:28.819Z,166.00
2022-11-23T11:02:18.406Z,120.80
2022-11-23T11:09:20.374Z,161.60
2022-11-23T11:13:42.850Z,179.70
2022-11-23T11:16:53.212Z,162.40
2022-11-23T11:20:35.119Z,162.80
2022-11-23T11:24:26.338Z,188.00
2022-11-23T11:27:52.073Z,171.90
2022-11-23T11:31:55.985Z,169.60
2022-11-23T11:35:29.995Z,165.10
2022-11-23T11:39:15.032Z,190.90
2022-11-23T11:42:38.920Z,173.50
2022-11-23T11:49:45.963Z,171.80
2022-11-23T11:53:23.102Z,181.20
2022-11-23T11:57:25.860Z,166.40
2022-11-23T12:00:44.810Z,176.70
2022-11-23T12:04:24.666Z,160.90
2022-11-23T12:08:26.184Z,174.00
2022-11-23T12:11:37.514Z,166.90
2022-11-23T12:19:17.750Z,185.30
2022-11-23T12:22:46.298Z,172.80
2022-11-23T12:26:45.400Z,133.20
2022-11-23T12:30:16.582Z,165.70
2022-11-23T12:33:55.485Z,168.70
2022-11-23T12:37:41.893Z,137.20
2022-11-23T12:41:07.744Z,178.80
2022-11-23T12:44:59.185Z,181.00
2022-11-23T12:48:21.520Z,181.80
2022-11-23T12:52:17.932Z,182.10
2022-11-23T12:55:43.554Z,178.10
2022-11-23T12:59:11.314Z,189.70
2022-11-23T13:03:07.973Z,174.30
2022-11-23T13:07:12.414Z,259.00
2022-11-23T13:10:21.624Z,199.30
2022-11-23T13:14:12.560Z,195.80
2022-11-23T13:17:53.049Z,192.50
2022-11-23T13:21:45.268Z,182.40
2022-11-23T13:25:10.173Z,168.80
2022-11-23T13:28:32.930Z,179.50
2022-11-23T13:32:35.616Z,191.20
2022-11-23T13:35:52.735Z,195.40
2022-11-23T13:39:44.522Z,156.60
2022-11-23T13:43:34.213Z,190.60
2022-11-23T13:47:18.667Z,159.80
2022-11-23T13:50:30.629Z,177.30
2022-11-23T13:54:22.556Z,186.70
2022-11-23T13:58:06.199Z,173.40
2022-11-23T14:02:00.910Z,213.40
2022-11-23T14:05:57.298Z,204.40
2022-11-23T14:09:24.432Z,205.70
2022-11-23T14:13:01.900Z,206.60
2022-11-23T14:16:54.437Z,191.90
2022-11-23T14:20:12.407Z,196.50
2022-11-23T14:24:14.160Z,194.20
2022-11-23T14:27:49.394Z,185.30
2022-11-23T14:31:28.312Z,179.70
2022-11-23T14:35:27.337Z,168.40
2022-11-23T14:38:55.776Z,163.60
2022-11-23T14:42:18.766Z,176.60
2022-11-23T14:45:53.452Z,165.40
2022-11-23T14:49:31.030Z,163.60
2022-11-23T14:53:11.304Z,168.60
2022-11-23T14:56:48.686Z,176.40
2022-11-23T15:00:35.811Z,176.50
2022-11-23T15:04:23.292Z,163.30
2022-11-23T15:07:49.121Z,159.00
2022-11-23T15:11:29.028Z,183.30
2022-11-23T15:14:59.872Z,185.80
2022-11-23T15:18:35.476Z,165.60
2022-11-23T15:22:18.452Z,172.20
2022-11-23T15:25:52.503Z,170.50
2022-11-23T15:29:53.770Z,191.60
2022-11-23T15:33:11.723Z,176.50
2022-11-23T15:36:43.296Z,181.60
2022-11-23T15:40:19.806Z,186.00
2022-11-23T15:43:59.863Z,167.20
2022-11-23T15:47:38.305Z,165.10
2022-11-23T15:51:24.999Z,196.40
2022-11-23T15:54:50.216Z,181.00
2022-11-23T15:58:28.890Z,205.30
2022-11-23T16:02:13.343Z,182.00
2022-11-23T16:05:43.530Z,177.40
2022-11-23T16:09:53.778Z,164.20
2022-11-23T16:13:06.616Z,171.80
2022-11-23T16:16:46.006Z,173.80
2022-11-23T16:20:23.765Z,166.40
2022-11-23T16:23:58.192Z,159.40
2022-11-23T16:27:36.642Z,162.60
2022-11-23T16:31:37.600Z,194.20
2022-11-23T16:34:50.382Z,172.30
2022-11-23T16:38:28.089Z,181.00
2022-11-23T16:42:05.793Z,187.50
2022-11-23T16:45:49.389Z,172.00
2022-11-23T16:49:23.555Z,179.10
2022-11-23T16:53:13.189Z,199.60
2022-11-23T16:56:37.119Z,171.70
2022-11-23T17:00:17.486Z,183.00
2022-11-23T17:03:59.183Z,180.90
2022-11-23T17:07:29.993Z,197.60
2022-11-23T17:11:24.299Z,209.70
2022-11-23T17:14:48.309Z,206.70
2022-11-23T17:18:22.833Z,180.20
2022-11-23T17:22:03.006Z,179.40
2022-11-23T17:25:39.271Z,194.90
2022-11-23T17:29:19.773Z,193.40
2022-11-23T17:32:54.469Z,169.60
2022-11-23T17:36:32.011Z,166.80
2022-11-23T17:40:18.029Z,169.20
2022-11-23T17:43:46.588Z,201.00
2022-11-23T17:47:30.002Z,170.90
2022-11-23T17:51:01.968Z,145.10
2022-11-23T17:54:42.334Z,166.80
2022-11-23T17:58:17.374Z,162.30
2022-11-23T18:01:55.305Z,130.00
2022-11-23T18:05:33.196Z,154.70
2022-11-23T18:09:12.842Z,146.90
2022-11-23T18:12:48.405Z,152.20
2022-11-23T18:16:26.347Z,132.00
2022-11-23T18:20:08.476Z,131.40
2022-11-23T18:23:42.841Z,149.70
2022-11-23T18:27:19.423Z,151.80
2022-11-23T18:30:59.462Z,138.80
2022-11-23T18:34:35.619Z,138.30
2022-11-23T18:38:12.120Z,146.50
2022-11-23T18:41:50.045Z,140.90
2022-11-23T18:45:28.865Z,134.70
2022-11-23T18:49:05.672Z,151.30
2022-11-23T18:52:46.076Z,188.10
2022-11-23T18:56:21.289Z,153.50
2022-11-23T19:00:01.341Z,147.80
2022-11-23T19:03:37.754Z,126.10
2022-11-23T19:07:13.873Z,149.40
2022-11-23T19:10:51.970Z,154.40
2022-11-23T19:15:03.046Z,149.70
2022-11-23T19:18:28.344Z,166.50
2022-11-23T19:22:05.487Z,169.30
2022-11-23T19:25:47.070Z,155.70
2022-11-23T19:29:09.555Z,152.40
2022-11-23T19:32:46.795Z,148.40
2022-11-23T19:36:25.628Z,129.90
2022-11-23T19:44:13.671Z,172.80
2022-11-23T19:47:51.356Z,149.10
2022-11-23T19:51:21.390Z,141.80
2022-11-23T19:55:03.376Z,170.00
2022-11-23T19:58:43.011Z,160.40
2022-11-23T20:02:23.298Z,150.20
2022-11-23T20:05:59.647Z,155.20
2022-11-23T20:09:28.082Z,165.00
2022-11-23T20:13:07.740Z,151.20
2022-11-23T20:21:19.004Z,178.30
2022-11-23T20:24:54.101Z,173.00
2022-11-23T20:29:00.212Z,173.00
2022-11-23T20:32:25.011Z,175.00
2022-11-23T20:36:16.208Z,163.80
2022-11-23T20:39:27.637Z,127.30
2022-11-23T20:43:05.256Z,202.40
2022-11-23T20:50:25.450Z,149.90
2022-11-23T20:53:59.888Z,166.60
2022-11-23T20:57:41.028Z,159.80
2022-11-23T21:01:17.360Z,151.80
2022-11-23T21:05:12.629Z,146.60
2022-11-23T21:08:34.654Z,134.20
2022-11-23T21:12:27.792Z,131.00
2022-11-23T21:15:45.715Z,153.60
2022-11-23T21:19:24.526Z,137.70
2022-11-23T21:23:00.788Z,154.90
2022-11-23T21:26:44.787Z,146.60
2022-11-23T21:30:16.499Z,152.80
2022-11-23T21:33:56.742Z,143.20
2022-11-23T21:37:35.376Z,152.50
2022-11-23T21:41:17.195Z,150.60
2022-11-23T21:44:46.065Z,159.70
2022-11-23T21:48:23.872Z,135.80
2022-11-23T21:52:01.474Z,168.70
2022-11-23T21:55:39.178Z,178.50
2022-11-23T21:59:16.883Z,144.00
2022-11-23T22:02:54.793Z,180.60
2022-11-23T22:06:32.292Z,175.50
2022-11-23T22:10:10.097Z,177.10
2022-11-23T22:13:48.827Z,170.10
2022-11-23T22:17:25.404Z,183.30
2022-11-23T22:21:04.752Z,182.30
2022-11-23T22:24:40.711Z,189.20
2022-11-23T22:28:19.027Z,183.60
2022-11-23T22:31:56.388Z,166.30
2022-11-23T22:35:33.924Z,167.50
2022-11-23T22:39:11.848Z,191.80
2022-11-23T22:42:49.233Z,191.40
2022-11-23T22:46:27.392Z,182.20
2022-11-23T22:50:05.292Z,179.80
2022-11-23T22:53:44.487Z,182.90
2022-11-23T22:57:20.601Z,172.40
2022-11-23T23:01:04.604Z,163.20
2022-11-23T23:04:35.537Z,180.80
2022-11-23T23:08:13.917Z,163.20
2022-11-23T23:11:50.698Z,166.80
2022-11-23T23:15:28.608Z,190.00
2022-11-23T23:19:06.925Z,198.20
2022-11-23T23:22:43.918Z,204.60
2022-11-23T23:26:24.964Z,158.00
2022-11-23T23:30:00.041Z,190.70
2022-11-23T23:33:37.540Z,172.70
2022-11-23T23:37:14.731Z,175.70
2022-11-23T23:40:55.485Z,184.80
2022-11-23T23:44:30.263Z,165.20
2022-11-23T23:48:07.739Z,196.10
2022-11-23T23:51:50.113Z,188.80
2022-11-23T23:55:23.250Z,174.20
2022-11-23T23:59:01.056Z,179.90
